Airfield :







YOU CAN JOIN US ON...

 
LOGIN :

Register | Disclaimer

   EN    FR    IT 

 









Legend :    VFR   Marginal VFR   IFR   Intensive IFR   Very Intensive IFR
Visi :
Ceiling :
>= 8 km
>= 3000ft
5 to 8 km
1000 to 3000 ft
1500m to 5 km
500 to 1000 ft
800 to 1500m
200 to 500 ft
< 800m
< 200 ft
Symbols :   Thunderstorms  Fog  Heavy snow  Heavy precipitations  Wind > 20 kt






- Airport Elevation : 84 ft
- IATA code : YJT


CYJT - Stephenville

CURRENT METAR :
  • 220400Z 03005KT 15SM SCT230 15/14 A2980 RMK CC3 SLP092 DENSITY ALT 300FT

EXPIRED METARs :
  • 220300Z 03005KT 15SM BKN220 15/14 A2980 RMK CC7 SLP095 DENSITY ALT 300FT
  • 220200Z 04004KT 15SM BKN230 14/13 A2982 RMK CC7 SLP101 DENSITY ALT 200FT

TAF TAF CYJT
Valid from the 22 at 00:00 until the 23 at 00:00 UTC


212338Z 2200/2224 VRB03KT P6SM BKN220
FM220600 07005KT P6SM BKN120
FM221200 18012KT P6SM FEW120
FM221500 20012G22KT P6SM BKN040
FM222200 18012G22KT P6SM -SHRA BKN020 OVC040 RMK NXT FCST BY 220600Z
CZQX FIR / North America



MET'MAP, your aeronautical weather chart ! - Copyright ORBIFLY December 2007 - Disclaimer

ORBIFLY MET'MAP TEAM :

Programming & Development : Alexandra Zaïnal
Concept & original design : Baudouin d'Aumeries
Assistance for programming : Marc-Olivier Méhu
Technical & hardware support : Manuel Goepfert

Contact : metmap@orbifly.com




SOURCES & CREDITS :

   NOAA